Time,TemperatureF,DewpointF,PressureIn,WindDirection,WindDirectionDegrees,WindSpeedMPH,WindSpeedGustMPH,Humidity,HourlyPrecipIn,Conditions,Clouds,dailyrainin,SoftwareType,DateUTC
2013-01-29 00:03:00,48.9,48.0,30.06,WSW,246,1.0,7.0,97,0.00,,,0.00,weatherlink.com 1.10,2013-01-29 05:03:00,
2013-01-29 00:18:00,48.7,48.0,30.06,WSW,239,2.0,4.0,97,0.01,,,0.01,weatherlink.com 1.10,2013-01-29 05:18:00,
2013-01-29 00:33:00,48.9,48.0,30.06,WSW,257,0.0,4.0,97,0.01,,,0.01,weatherlink.com 1.10,2013-01-29 05:33:00,
2013-01-29 00:48:00,49.0,48.0,30.06,West,266,4.0,7.0,97,0.01,,,0.01,weatherlink.com 1.10,2013-01-29 05:48:00,
2013-01-29 01:03:00,49.0,48.0,30.05,SW,234,3.0,4.0,97,0.01,,,0.01,weatherlink.com 1.10,2013-01-29 06:03:00,
2013-01-29 01:18:00,49.1,48.0,30.05,West,263,1.0,5.0,97,0.00,,,0.01,weatherlink.com 1.10,2013-01-29 06:18:00,
2013-01-29 01:33:00,48.9,48.0,30.05,West,263,3.0,6.0,97,0.00,,,0.01,weatherlink.com 1.10,2013-01-29 06:33:00,
2013-01-29 01:49:00,48.9,48.0,30.05,West,277,1.0,3.0,97,0.00,,,0.01,weatherlink.com 1.10,2013-01-29 06:49:00,
2013-01-29 02:03:00,49.0,48.0,30.05,WNW,286,0.0,4.0,97,0.00,,,0.01,weatherlink.com 1.10,2013-01-29 07:03:00,
2013-01-29 02:18:00,49.0,48.0,30.05,West,270,1.0,6.0,97,0.00,,,0.01,weatherlink.com 1.10,2013-01-29 07:18:00,
2013-01-29 02:33:00,48.8,48.0,30.05,SSW,208,1.0,4.0,97,0.00,,,0.01,weatherlink.com 1.10,2013-01-29 07:33:00,
2013-01-29 02:48:00,49.0,48.0,30.05,WSW,243,0.0,2.0,97,0.00,,,0.01,weatherlink.com 1.10,2013-01-29 07:48:00,
2013-01-29 03:03:00,48.9,48.0,30.05,WSW,247,0.0,1.0,97,0.00,,,0.01,weatherlink.com 1.10,2013-01-29 08:03:00,
2013-01-29 03:18:00,48.6,48.0,30.05,SW,235,0.0,2.0,97,0.00,,,0.01,weatherlink.com 1.10,2013-01-29 08:18:00,
2013-01-29 03:33:00,48.5,48.0,30.05,SW,222,0.0,2.0,97,0.00,,,0.01,weatherlink.com 1.10,2013-01-29 08:33:00,
2013-01-29 03:48:00,48.5,48.0,30.05,West,263,0.0,4.0,97,0.00,,,0.01,weatherlink.com 1.10,2013-01-29 08:48:00,
2013-01-29 04:03:00,48.5,48.0,30.04,SW,233,2.0,2.0,97,0.00,,,0.01,weatherlink.com 1.10,2013-01-29 09:03:00,
2013-01-29 04:18:00,48.4,48.0,30.04,WSW,247,0.0,0.0,97,0.00,,,0.01,weatherlink.com 1.10,2013-01-29 09:18:00,
2013-01-29 04:33:00,48.4,48.0,30.04,SSW,202,0.0,0.0,97,0.00,,,0.01,weatherlink.com 1.10,2013-01-29 09:33:00,
2013-01-29 04:48:00,47.9,47.0,30.05,SSW,202,0.0,1.0,97,0.00,,,0.01,weatherlink.com 1.10,2013-01-29 09:48:00,
2013-01-29 05:03:00,47.5,47.0,30.05,SW,222,0.0,2.0,97,0.00,,,0.01,weatherlink.com 1.10,2013-01-29 10:03:00,
2013-01-29 05:18:00,46.6,46.0,30.05,SW,222,0.0,0.0,96,0.01,,,0.02,weatherlink.com 1.10,2013-01-29 10:18:00,
2013-01-29 05:34:00,45.8,45.0,30.04,South,180,0.0,0.0,96,0.01,,,0.02,weatherlink.com 1.10,2013-01-29 10:34:00,
2013-01-29 05:49:00,45.2,44.0,30.03,South,180,0.0,0.0,97,0.01,,,0.02,weatherlink.com 1.10,2013-01-29 10:49:00,
2013-01-29 06:04:00,44.6,44.0,30.02,South,180,0.0,0.0,97,0.01,,,0.02,weatherlink.com 1.10,2013-01-29 11:04:00,
2013-01-29 06:18:00,44.3,44.0,30.03,South,180,0.0,0.0,97,0.00,,,0.02,weatherlink.com 1.10,2013-01-29 11:18:00,
2013-01-29 06:33:00,43.8,43.0,30.03,South,180,0.0,0.0,96,0.00,,,0.02,weatherlink.com 1.10,2013-01-29 11:33:00,
2013-01-29 06:48:00,43.5,43.0,30.02,South,180,0.0,0.0,97,0.00,,,0.02,weatherlink.com 1.10,2013-01-29 11:48:00,
2013-01-29 07:03:00,43.4,43.0,30.03,South,180,0.0,0.0,97,0.00,,,0.02,weatherlink.com 1.10,2013-01-29 12:03:00,
2013-01-29 07:18:00,43.3,43.0,30.04,South,180,0.0,0.0,97,0.00,,,0.02,weatherlink.com 1.10,2013-01-29 12:18:00,
2013-01-29 07:33:00,43.2,42.0,30.04,South,180,0.0,0.0,97,0.00,,,0.02,weatherlink.com 1.10,2013-01-29 12:33:00,
2013-01-29 07:48:00,43.2,42.0,30.03,South,180,0.0,0.0,97,0.00,,,0.02,weatherlink.com 1.10,2013-01-29 12:48:00,
2013-01-29 08:04:00,43.1,42.0,30.04,South,180,0.0,0.0,97,0.00,,,0.02,weatherlink.com 1.10,2013-01-29 13:04:00,
2013-01-29 08:18:00,43.7,43.0,30.03,South,180,0.0,0.0,98,0.01,,,0.03,weatherlink.com 1.10,2013-01-29 13:18:00,
2013-01-29 08:33:00,44.5,44.0,30.04,SSW,207,0.0,2.0,98,0.01,,,0.03,weatherlink.com 1.10,2013-01-29 13:33:00,
2013-01-29 08:49:00,46.0,46.0,30.04,SSW,205,0.0,1.0,98,0.01,,,0.03,weatherlink.com 1.10,2013-01-29 13:49:00,
2013-01-29 09:04:00,48.1,48.0,30.03,South,179,0.0,3.0,98,0.01,,,0.03,weatherlink.com 1.10,2013-01-29 14:04:00,
2013-01-29 09:18:00,48.8,48.0,30.03,SSW,207,1.0,1.0,98,0.00,,,0.03,weatherlink.com 1.10,2013-01-29 14:18:00,
2013-01-29 09:34:00,49.6,49.0,30.03,SW,217,0.0,3.0,98,0.00,,,0.03,weatherlink.com 1.10,2013-01-29 14:34:00,
2013-01-29 09:49:00,50.3,50.0,30.03,SSW,208,0.0,4.0,98,0.00,,,0.03,weatherlink.com 1.10,2013-01-29 14:49:00,
2013-01-29 10:04:00,50.8,50.0,30.01,SW,219,0.0,5.0,98,0.00,,,0.03,weatherlink.com 1.10,2013-01-29 15:04:00,
2013-01-29 10:19:00,51.5,51.0,30.00,SSW,205,1.0,4.0,98,0.00,,,0.03,weatherlink.com 1.10,2013-01-29 15:19:00,
2013-01-29 10:34:00,52.0,52.0,30.01,SSW,197,0.0,4.0,98,0.00,,,0.03,weatherlink.com 1.10,2013-01-29 15:34:00,
2013-01-29 10:49:00,52.6,52.0,30.00,SW,219,3.0,6.0,98,0.00,,,0.03,weatherlink.com 1.10,2013-01-29 15:49:00,
2013-01-29 11:04:00,53.1,53.0,30.00,SSW,213,1.0,5.0,98,0.00,,,0.03,weatherlink.com 1.10,2013-01-29 16:04:00,
2013-01-29 11:19:00,53.5,53.0,29.99,SW,217,0.0,4.0,98,0.00,,,0.03,weatherlink.com 1.10,2013-01-29 16:19:00,
2013-01-29 11:34:00,54.1,54.0,29.98,South,177,1.0,5.0,98,0.00,,,0.03,weatherlink.com 1.10,2013-01-29 16:34:00,
2013-01-29 11:49:00,54.6,54.0,29.97,SW,234,1.0,5.0,98,0.00,,,0.03,weatherlink.com 1.10,2013-01-29 16:49:00,
2013-01-29 12:04:00,55.8,55.0,29.97,SW,217,2.0,4.0,97,0.00,,,0.03,weatherlink.com 1.10,2013-01-29 17:04:00,
2013-01-29 12:19:00,57.7,55.0,29.95,West,261,1.0,8.0,91,0.00,,,0.03,weatherlink.com 1.10,2013-01-29 17:19:00,
2013-01-29 12:34:00,59.3,55.0,29.95,West,272,3.0,11.0,86,0.00,,,0.03,weatherlink.com 1.10,2013-01-29 17:34:00,
2013-01-29 12:49:00,59.9,55.0,29.95,WSW,252,6.0,7.0,85,0.00,,,0.03,weatherlink.com 1.10,2013-01-29 17:49:00,
2013-01-29 13:05:00,59.4,54.0,29.94,West,267,7.0,11.0,83,0.00,,,0.03,weatherlink.com 1.10,2013-01-29 18:05:00,
2013-01-29 13:19:00,59.0,54.0,29.93,West,259,8.0,8.0,84,0.00,,,0.03,weatherlink.com 1.10,2013-01-29 18:19:00,
2013-01-29 13:34:00,58.7,55.0,29.93,SSE,149,1.0,5.0,86,0.00,,,0.03,weatherlink.com 1.10,2013-01-29 18:34:00,
2013-01-29 13:49:00,59.3,55.0,29.92,SSE,163,0.0,6.0,85,0.00,,,0.03,weatherlink.com 1.10,2013-01-29 18:49:00,
2013-01-29 14:04:00,60.4,55.0,29.91,South,170,3.0,7.0,83,0.00,,,0.03,weatherlink.com 1.10,2013-01-29 19:04:00,
2013-01-29 14:19:00,60.8,55.0,29.90,SW,229,5.0,10.0,82,0.00,,,0.03,weatherlink.com 1.10,2013-01-29 19:19:00,
2013-01-29 14:34:00,60.9,55.0,29.90,SSW,205,1.0,4.0,82,0.00,,,0.03,weatherlink.com 1.10,2013-01-29 19:34:00,
2013-01-29 14:50:00,61.1,56.0,29.90,West,259,1.0,6.0,82,0.00,,,0.03,weatherlink.com 1.10,2013-01-29 19:50:00,
2013-01-29 15:05:00,61.1,55.0,29.89,SSE,161,1.0,6.0,81,0.00,,,0.03,weatherlink.com 1.10,2013-01-29 20:05:00,
2013-01-29 15:19:00,61.0,55.0,29.90,West,279,0.0,6.0,81,0.00,,,0.03,weatherlink.com 1.10,2013-01-29 20:19:00,
2013-01-29 15:35:00,61.2,55.0,29.90,WNW,286,0.0,4.0,80,0.00,,,0.03,weatherlink.com 1.10,2013-01-29 20:35:00,
2013-01-29 15:50:00,60.9,55.0,29.91,WNW,292,0.0,2.0,81,0.00,,,0.03,weatherlink.com 1.10,2013-01-29 20:50:00,
2013-01-29 16:05:00,60.4,55.0,29.91,WNW,292,0.0,1.0,82,0.00,,,0.03,weatherlink.com 1.10,2013-01-29 21:05:00,
2013-01-29 16:20:00,59.6,55.0,29.90,WNW,292,0.0,0.0,84,0.00,,,0.03,weatherlink.com 1.10,2013-01-29 21:20:00,
2013-01-29 16:35:00,59.1,55.0,29.89,WNW,292,0.0,0.0,85,0.00,,,0.03,weatherlink.com 1.10,2013-01-29 21:35:00,
2013-01-29 16:50:00,58.2,54.0,29.90,WNW,292,0.0,0.0,86,0.00,,,0.03,weatherlink.com 1.10,2013-01-29 21:50:00,
2013-01-29 17:05:00,57.2,53.0,29.89,WNW,292,0.0,0.0,87,0.00,,,0.03,weatherlink.com 1.10,2013-01-29 22:05:00,
2013-01-29 17:20:00,56.0,53.0,29.89,WNW,292,0.0,0.0,88,0.00,,,0.03,weatherlink.com 1.10,2013-01-29 22:20:00,
2013-01-29 17:35:00,54.8,52.0,29.88,WNW,292,0.0,0.0,89,0.00,,,0.03,weatherlink.com 1.10,2013-01-29 22:35:00,
2013-01-29 17:50:00,53.5,51.0,29.88,WNW,292,0.0,0.0,90,0.00,,,0.03,weatherlink.com 1.10,2013-01-29 22:50:00,
2013-01-29 18:05:00,51.7,49.0,29.87,WNW,292,0.0,2.0,91,0.00,,,0.03,weatherlink.com 1.10,2013-01-29 23:05:00,
2013-01-29 18:20:00,50.1,48.0,29.87,WNW,292,0.0,0.0,92,0.00,,,0.03,weatherlink.com 1.10,2013-01-29 23:20:00,
2013-01-29 18:35:00,48.7,47.0,29.87,WNW,292,0.0,0.0,92,0.00,,,0.03,weatherlink.com 1.10,2013-01-29 23:35:00,
2013-01-29 18:50:00,47.8,46.0,29.86,WNW,292,0.0,0.0,94,0.00,,,0.03,weatherlink.com 1.10,2013-01-29 23:50:00,
2013-01-29 19:05:00,47.0,45.0,29.86,WNW,292,0.0,0.0,94,0.00,,,0.03,weatherlink.com 1.10,2013-01-30 00:05:00,
2013-01-29 19:20:00,46.4,45.0,29.86,WNW,292,0.0,0.0,95,0.00,,,0.03,weatherlink.com 1.10,2013-01-30 00:20:00,
2013-01-29 19:35:00,45.6,44.0,29.86,WNW,292,0.0,0.0,94,0.00,,,0.03,weatherlink.com 1.10,2013-01-30 00:35:00,
2013-01-29 19:50:00,45.0,44.0,29.85,WNW,292,0.0,0.0,95,0.00,,,0.03,weatherlink.com 1.10,2013-01-30 00:50:00,
2013-01-29 20:05:00,44.7,43.0,29.84,WNW,292,0.0,0.0,95,0.00,,,0.03,weatherlink.com 1.10,2013-01-30 01:05:00,
2013-01-29 20:20:00,44.3,43.0,29.84,WNW,292,0.0,1.0,95,0.00,,,0.03,weatherlink.com 1.10,2013-01-30 01:20:00,
2013-01-29 20:35:00,44.1,43.0,29.84,WNW,292,0.0,0.0,96,0.00,,,0.03,weatherlink.com 1.10,2013-01-30 01:35:00,
2013-01-29 20:50:00,44.1,43.0,29.84,WNW,292,0.0,0.0,96,0.00,,,0.03,weatherlink.com 1.10,2013-01-30 01:50:00,
2013-01-29 21:05:00,43.9,43.0,29.84,WNW,292,0.0,0.0,96,0.00,,,0.03,weatherlink.com 1.10,2013-01-30 02:05:00,
2013-01-29 21:20:00,43.5,43.0,29.85,WNW,292,0.0,0.0,96,0.00,,,0.03,weatherlink.com 1.10,2013-01-30 02:20:00,
2013-01-29 21:35:00,43.4,42.0,29.85,WNW,292,0.0,0.0,96,0.00,,,0.03,weatherlink.com 1.10,2013-01-30 02:35:00,
2013-01-29 21:50:00,43.4,42.0,29.85,WNW,292,0.0,0.0,96,0.00,,,0.03,weatherlink.com 1.10,2013-01-30 02:50:00,
2013-01-29 22:05:00,42.9,42.0,29.85,WNW,292,0.0,0.0,96,0.00,,,0.03,weatherlink.com 1.10,2013-01-30 03:05:00,
2013-01-29 22:20:00,42.8,42.0,29.82,WNW,292,0.0,0.0,96,0.00,,,0.03,weatherlink.com 1.10,2013-01-30 03:20:00,
2013-01-29 22:35:00,42.4,41.0,29.82,WNW,292,0.0,1.0,96,0.00,,,0.03,weatherlink.com 1.10,2013-01-30 03:35:00,
2013-01-29 22:50:00,42.1,41.0,29.81,WNW,292,0.0,0.0,96,0.00,,,0.03,weatherlink.com 1.10,2013-01-30 03:50:00,
2013-01-29 23:05:00,41.7,41.0,29.81,WNW,292,0.0,1.0,96,0.00,,,0.03,weatherlink.com 1.10,2013-01-30 04:05:00,
2013-01-29 23:20:00,41.7,41.0,29.80,WNW,292,0.0,0.0,97,0.00,,,0.03,weatherlink.com 1.10,2013-01-30 04:20:00,
2013-01-29 23:35:00,42.1,41.0,29.79,WNW,292,0.0,1.0,97,0.00,,,0.03,weatherlink.com 1.10,2013-01-30 04:35:00,
2013-01-29 23:50:00,43.5,43.0,29.79,WNW,292,0.0,1.0,98,0.00,,,0.03,weatherlink.com 1.10,2013-01-30 04:50:00,